Time;durP1;ratioP1;P1;durP2;ratioP2;P2;SDS_P1;SDS_P2;PMS_P1;PMS_P2;Temp;Humidity;BMP_temperature;BMP_pressure;BME280_temperature;BME280_humidity;BME280_pressure;Samples;Min_cycle;Max_cycle;Signal;HPM_P1;HPM_P2
2022/08/08 00:01:57;;;;;;;9.18;4.05;;;;;;;18.81;98.61;102459.00;5106314;27;20039;-58
2022/08/08 00:04:59;;;;;;;;;;;;;;;18.82;99.38;102466.00;5099690;27;20051;-60
2022/08/08 00:07:46;;;;;;;6.05;3.55;;;;;;;18.77;95.13;102463.78;5114477;27;19935;-58
2022/08/08 00:10:21;;;;;;;6.67;4.17;;;;;;;18.76;100.00;102464.78;5107809;27;20047;-57
2022/08/08 00:13:08;;;;;;;5.40;3.38;;;;;;;18.72;100.00;102458.13;5087892;27;20218;-57
2022/08/08 00:16:02;;;;;;;8.63;4.28;;;;;;;18.70;100.00;102462.78;5095356;27;20052;-59
2022/08/08 00:18:46;;;;;;;6.38;3.50;;;;;;;18.69;99.99;102461.09;5104344;27;20514;-58
2022/08/08 00:21:25;;;;;;;6.68;4.40;;;;;;;18.61;100.00;102455.75;5109530;27;20050;-58
2022/08/08 00:24:03;;;;;;;7.32;4.38;;;;;;;18.55;100.00;102464.38;5105878;27;20078;-59
2022/08/08 00:26:35;;;;;;;7.35;4.13;;;;;;;18.52;100.00;102462.88;5110784;27;20329;-59
2022/08/08 00:29:18;;;;;;;6.40;3.70;;;;;;;18.45;100.00;102459.19;5095868;27;20079;-59
2022/08/08 00:32:12;;;;;;;6.80;3.97;;;;;;;18.46;100.00;102457.34;5113242;27;20121;-58
2022/08/08 00:35:15;;;;;;;8.43;4.10;;;;;;;18.41;100.00;102457.84;5112283;27;20184;-58
2022/08/08 00:37:51;;;;;;;6.60;4.18;;;;;;;18.34;100.00;102457.63;5104452;28;20729;-58
2022/08/08 00:40:27;;;;;;;8.27;3.95;;;;;;;18.29;100.00;102456.44;5098978;27;20058;-59
2022/08/08 00:43:45;;;;;;;9.40;4.00;;;;;;;18.27;100.00;102459.25;5102278;27;20051;-59
2022/08/08 00:46:59;;;;;;;12.07;4.55;;;;;;;18.22;100.00;102453.56;5108710;27;20144;-58
2022/08/08 00:49:44;;;;;;;8.07;3.90;;;;;;;18.10;100.00;102449.53;5110159;27;20161;-58
2022/08/08 00:52:33;;;;;;;9.70;4.25;;;;;;;18.10;100.00;102450.34;5099531;27;20125;-59
2022/08/08 00:55:26;;;;;;;8.07;4.38;;;;;;;18.08;100.00;102452.31;5111451;27;20562;-59
2022/08/08 00:58:34;;;;;;;7.40;4.10;;;;;;;18.03;100.00;102451.13;5094682;27;20054;-58
2022/08/08 01:01:34;;;;;;;7.22;3.83;;;;;;;17.98;100.00;102449.78;5103167;27;20045;-58
2022/08/08 01:04:22;;;;;;;7.22;3.90;;;;;;;17.98;100.00;102448.94;5116116;27;20138;-59
2022/08/08 01:06:57;;;;;;;7.03;4.13;;;;;;;17.89;100.00;102445.38;5118951;27;20139;-59
2022/08/08 01:10:01;;;;;;;8.30;4.30;;;;;;;17.85;100.00;102444.03;5090922;27;20058;-58
2022/08/08 01:12:53;;;;;;;9.82;4.00;;;;;;;17.76;100.00;102444.94;5117706;27;20065;-58
2022/08/08 01:15:19;;;;;;;;;;;;;;;17.72;100.00;102447.06;5107676;27;20047;-59
2022/08/08 01:18:35;;;;;;;9.35;3.70;;;;;;;17.65;100.00;102451.31;5102472;28;19924;-59
2022/08/08 01:21:34;;;;;;;8.80;3.90;;;;;;;17.58;100.00;102451.13;5098674;27;20086;-59
2022/08/08 01:24:51;;;;;;;4.72;3.20;;;;;;;17.50;100.00;102452.84;5102073;28;20043;-57
2022/08/08 01:27:38;;;;;;;7.07;4.10;;;;;;;17.43;100.00;102447.31;5112017;27;20051;-58
2022/08/08 01:30:25;;;;;;;7.40;4.20;;;;;;;17.42;100.00;102450.13;5111057;27;20047;-59
2022/08/08 01:33:33;;;;;;;7.15;3.70;;;;;;;17.37;100.00;102451.41;5097057;27;21066;-57
2022/08/08 01:36:46;;;;;;;9.15;4.40;;;;;;;17.34;100.00;102454.34;5103104;27;20047;-59
2022/08/08 01:39:48;;;;;;;8.13;4.22;;;;;;;17.33;100.00;102452.69;5127030;27;20483;-59
2022/08/08 01:42:30;;;;;;;6.55;4.00;;;;;;;17.36;100.00;102447.09;5103118;27;20069;-59
2022/08/08 01:45:26;;;;;;;7.25;4.30;;;;;;;17.30;100.00;102449.50;5102618;28;20051;-58
2022/08/08 01:48:16;;;;;;;5.97;3.88;;;;;;;17.28;100.00;102448.84;5091370;27;20052;-59
2022/08/08 01:51:08;;;;;;;9.23;4.13;;;;;;;17.22;100.00;102444.97;5111646;27;20337;-59
2022/08/08 01:54:16;;;;;;;5.65;3.97;;;;;;;17.18;100.00;102446.25;5078780;28;20047;-59
2022/08/08 01:57:17;;;;;;;8.02;4.15;;;;;;;17.16;100.00;102458.81;5104668;27;20051;-57
2022/08/08 01:59:43;;;;;;;8.00;4.15;;;;;;;17.07;100.00;102457.06;5091145;28;20055;-59
2022/08/08 02:02:53;;;;;;;7.00;4.35;;;;;;;16.99;100.00;102453.38;5107194;27;20039;-58
2022/08/08 02:05:44;;;;;;;4.93;3.33;;;;;;;16.92;100.00;102454.09;5098983;27;20055;-59
2022/08/08 02:08:45;;;;;;;7.28;3.75;;;;;;;16.86;100.00;102447.56;5102255;28;20043;-59
2022/08/08 02:11:31;;;;;;;;;;;;;;;16.82;100.00;102448.00;5098517;27;20051;-58
2022/08/08 02:14:29;;;;;;;6.60;3.95;;;;;;;16.74;100.00;102440.75;5097484;28;19924;-58
2022/08/08 02:17:15;;;;;;;5.03;3.63;;;;;;;16.66;100.00;102438.88;5105255;27;20050;-58
2022/08/08 02:20:22;;;;;;;6.63;3.92;;;;;;;16.59;100.00;102438.59;5112004;27;20478;-59
2022/08/08 02:23:21;;;;;;;6.85;4.45;;;;;;;16.52;100.00;102437.50;5078967;28;20058;-57
2022/08/08 02:26:01;;;;;;;8.32;4.40;;;;;;;16.49;100.00;102443.13;5102670;28;20048;-58
2022/08/08 02:28:46;;;;;;;6.93;4.03;;;;;;;16.52;100.00;102439.34;5089436;28;20047;-59
2022/08/08 02:31:39;;;;;;;7.07;3.80;;;;;;;16.56;100.00;102436.28;5101055;27;20057;-58
2022/08/08 02:35:02;;;;;;;11.20;5.72;;;;;;;16.59;100.00;102440.44;5114979;27;20105;-59
2022/08/08 02:38:01;;;;;;;9.88;7.00;;;;;;;16.63;100.00;102441.81;5109759;28;20071;-59
2022/08/08 02:40:47;;;;;;;7.95;4.35;;;;;;;16.58;100.00;102452.84;5107644;27;20442;-58
2022/08/08 02:43:53;;;;;;;5.45;3.85;;;;;;;16.52;100.00;102452.56;5105947;27;20135;-59
2022/08/08 02:46:45;;;;;;;7.07;4.40;;;;;;;16.43;100.00;102445.53;5111724;27;20438;-59
2022/08/08 02:49:37;;;;;;;7.07;4.15;;;;;;;16.34;100.00;102457.81;5116833;27;20626;-57
2022/08/08 02:52:53;;;;;;;6.80;4.15;;;;;;;16.33;100.00;102459.63;5096928;28;20047;-58
2022/08/08 02:55:41;;;;;;;5.63;3.80;;;;;;;16.34;100.00;102461.28;5104648;27;20131;-59
2022/08/08 02:58:43;;;;;;;7.18;4.20;;;;;;;16.32;100.00;102454.47;5096689;28;20050;-57
2022/08/08 03:01:44;;;;;;;6.82;4.00;;;;;;;16.28;100.00;102453.09;5105278;27;20052;-59
2022/08/08 03:05:06;;;;;;;5.35;3.55;;;;;;;16.28;100.00;102455.75;5066357;28;20073;-58
2022/08/08 03:08:04;;;;;;;5.65;3.90;;;;;;;16.27;100.00;102459.34;5106725;28;20083;-59
2022/08/08 03:10:54;;;;;;;6.55;4.30;;;;;;;16.22;100.00;102459.78;5102397;27;20765;-59
2022/08/08 03:14:09;;;;;;;8.63;4.00;;;;;;;16.21;100.00;102456.31;5113937;27;20059;-59
2022/08/08 03:17:01;;;;;;;8.05;4.10;;;;;;;16.14;100.00;102454.38;5109710;27;20055;-59
2022/08/08 03:20:06;;;;;;;6.22;4.15;;;;;;;16.11;100.00;102452.00;5076076;28;20047;-58
2022/08/08 03:22:43;;;;;;;5.93;4.00;;;;;;;16.12;100.00;102459.00;5095608;27;20047;-58
2022/08/08 03:25:10;;;;;;;7.07;4.00;;;;;;;16.09;100.00;102454.81;5114058;27;20065;-59
2022/08/08 03:27:53;;;;;;;6.30;3.90;;;;;;;16.05;100.00;102468.47;5099355;27;20053;-59
2022/08/08 03:30:23;;;;;;;9.10;4.25;;;;;;;16.00;100.00;102466.25;5117241;27;20142;-59
2022/08/08 03:35:56;;;;;;;7.65;3.90;;;;;;;16.05;100.00;102466.66;5107344;27;20526;-58
2022/08/08 03:38:23;;;;;;;5.55;3.97;;;;;;;15.97;100.00;102463.88;5100368;27;20312;-59
2022/08/08 03:41:09;;;;;;;6.30;4.00;;;;;;;15.96;100.00;102463.06;5104637;28;20058;-58
2022/08/08 03:43:57;;;;;;;6.63;4.00;;;;;;;16.00;100.00;102461.78;5097868;27;20055;-59
2022/08/08 03:46:25;;;;;;;5.55;3.67;;;;;;;15.97;100.00;102469.19;5115207;27;20048;-58
2022/08/08 03:49:00;;;;;;;7.35;4.30;;;;;;;15.95;100.00;102464.03;5111544;27;20586;-58
2022/08/08 03:51:54;;;;;;;9.02;3.85;;;;;;;15.96;100.00;102464.88;5108357;27;20543;-59
2022/08/08 03:54:22;;;;;;;6.18;4.20;;;;;;;16.00;100.00;102466.25;5103989;28;20428;-58
2022/08/08 03:57:14;;;;;;;9.95;4.30;;;;;;;16.00;100.00;102463.63;5095618;28;20055;-58
2022/08/08 04:00:07;;;;;;;7.60;4.05;;;;;;;15.98;100.00;102468.22;5111115;27;20055;-59
2022/08/08 04:02:37;;;;;;;7.32;3.65;;;;;;;15.94;100.00;102482.72;5092335;28;20522;-59
2022/08/08 04:05:13;;;;;;;6.90;3.60;;;;;;;15.89;100.00;102477.00;5101218;27;20058;-59
2022/08/08 04:07:44;;;;;;;12.48;4.20;;;;;;;15.84;100.00;102477.44;5108216;27;20447;-58
2022/08/08 04:10:11;;;;;;;6.97;4.03;;;;;;;15.86;100.00;102480.75;5106635;27;20354;-59
2022/08/08 04:12:37;;;;;;;8.43;4.75;;;;;;;15.92;100.00;102482.84;5099021;28;20525;-61
2022/08/08 04:15:04;;;;;;;6.03;3.92;;;;;;;15.91;100.00;102485.63;5096592;28;20124;-57
2022/08/08 04:17:31;;;;;;;6.25;4.10;;;;;;;15.97;100.00;102491.19;5100080;27;20438;-59
2022/08/08 04:20:17;;;;;;;7.03;4.28;;;;;;;16.01;100.00;102482.00;5096881;27;20447;-59
2022/08/08 04:22:44;;;;;;;8.82;4.35;;;;;;;16.07;100.00;102495.63;5108072;27;20048;-59
2022/08/08 04:25:16;;;;;;;8.95;4.78;;;;;;;16.07;100.00;102485.88;5098490;27;20070;-58
2022/08/08 04:27:43;;;;;;;5.97;4.18;;;;;;;16.09;100.00;102502.47;5134209;27;20069;-58
2022/08/08 04:30:30;;;;;;;5.95;4.40;;;;;;;15.99;100.00;102498.97;5108412;27;20047;-58
2022/08/08 04:33:05;;;;;;;8.48;4.68;;;;;;;15.93;100.00;102504.84;5108358;27;20476;-58
2022/08/08 04:35:33;;;;;;;7.60;5.00;;;;;;;15.86;100.00;102504.59;5116558;27;20089;-59
2022/08/08 04:38:05;;;;;;;12.57;8.82;;;;;;;15.82;100.00;102500.53;5103230;27;20138;-60
2022/08/08 04:40:35;;;;;;;29.00;24.02;;;;;;;15.83;100.00;102510.13;5096809;28;20148;-59
2022/08/08 04:43:02;;;;;;;40.80;32.33;;;;;;;15.81;100.00;102512.91;5109295;27;20066;-59
2022/08/08 04:45:31;;;;;;;30.77;26.27;;;;;;;15.81;100.00;102520.03;5099516;27;20054;-59
2022/08/08 04:47:59;;;;;;;33.17;27.08;;;;;;;15.79;100.00;102521.97;5112470;27;20259;-59
2022/08/08 04:50:26;;;;;;;28.15;23.98;;;;;;;15.78;100.00;102522.97;5104004;27;20547;-59
2022/08/08 04:52:59;;;;;;;33.42;24.17;;;;;;;15.75;100.00;102520.59;5103538;27;20047;-59
2022/08/08 04:55:39;;;;;;;26.20;20.60;;;;;;;15.70;100.00;102523.63;5105455;27;20511;-59
2022/08/08 04:58:21;;;;;;;25.83;19.73;;;;;;;15.68;100.00;102519.44;5098339;28;20500;-59
2022/08/08 05:00:48;;;;;;;24.40;19.40;;;;;;;15.61;100.00;102522.63;5096127;27;20518;-58
2022/08/08 05:03:16;;;;;;;19.77;14.93;;;;;;;15.61;100.00;102529.75;5115980;27;20050;-59
2022/08/08 05:06:03;;;;;;;16.38;13.20;;;;;;;15.68;100.00;102530.88;5096595;27;20055;-58
2022/08/08 05:08:45;;;;;;;11.13;7.70;;;;;;;15.74;100.00;102530.34;5102653;27;20059;-59
2022/08/08 05:11:17;;;;;;;10.63;5.57;;;;;;;15.83;100.00;102536.59;5095686;27;20081;-58
2022/08/08 05:13:51;;;;;;;9.25;4.88;;;;;;;15.90;100.00;102544.84;5099838;27;20051;-59
2022/08/08 05:16:27;;;;;;;9.93;4.47;;;;;;;15.99;100.00;102544.84;5107425;27;20083;-58
2022/08/08 05:19:13;;;;;;;9.23;3.90;;;;;;;16.09;100.00;102536.03;5105171;27;20063;-59
2022/08/08 05:22:00;;;;;;;6.53;3.33;;;;;;;16.16;100.00;102535.31;5111435;27;20047;-57
2022/08/08 05:24:26;;;;;;;7.85;3.85;;;;;;;16.24;100.00;102544.38;5109512;27;20047;-60
2022/08/08 05:26:56;;;;;;;9.10;4.00;;;;;;;16.28;100.00;102541.31;5115529;27;20159;-59
2022/08/08 05:29:23;;;;;;;6.57;3.17;;;;;;;16.34;100.00;102545.19;5100844;27;20063;-58
2022/08/08 05:31:54;;;;;;;9.18;3.25;;;;;;;16.41;100.00;102546.31;5116472;27;20062;-59
2022/08/08 05:34:46;;;;;;;6.13;3.33;;;;;;;16.46;100.00;102543.22;5110908;27;20054;-59
2022/08/08 05:37:25;;;;;;;11.65;3.80;;;;;;;16.50;100.00;102541.94;5117621;27;20120;-58
2022/08/08 05:40:13;;;;;;;6.47;2.83;;;;;;;16.54;100.00;102538.03;5092717;28;20047;-60
2022/08/08 05:42:48;;;;;;;8.70;3.08;;;;;;;16.59;100.00;102535.78;5108800;27;20108;-59
2022/08/08 05:45:15;;;;;;;6.78;3.00;;;;;;;16.62;100.00;102540.78;5105131;27;20319;-59
2022/08/08 05:47:59;;;;;;;4.57;2.80;;;;;;;16.70;100.00;102540.94;5113140;27;20047;-59
2022/08/08 05:50:35;;;;;;;4.88;2.28;;;;;;;16.74;100.00;102544.94;5108384;27;20537;-60
2022/08/08 05:53:04;;;;;;;4.38;2.10;;;;;;;16.80;100.00;102546.19;5105784;27;20051;-59
2022/08/08 05:55:56;;;;;;;5.90;2.72;;;;;;;16.88;100.00;102553.44;5103257;27;20054;-59
2022/08/08 05:58:42;;;;;;;6.78;2.60;;;;;;;16.89;100.00;102552.44;5096082;28;20649;-59
2022/08/08 06:01:29;;;;;;;;;;;;;;;16.98;100.00;102548.94;5121140;27;20055;-60
2022/08/08 06:04:21;;;;;;;3.92;2.03;;;;;;;17.04;100.00;102552.81;5101548;27;19923;-58
2022/08/08 06:06:58;;;;;;;5.40;1.83;;;;;;;17.06;100.00;102559.63;5100495;27;20105;-59
2022/08/08 06:09:32;;;;;;;5.50;1.60;;;;;;;17.11;100.00;102560.03;5100290;27;20052;-60
2022/08/08 06:12:19;;;;;;;3.08;1.60;;;;;;;17.17;100.00;102548.84;5110804;27;20103;-59
2022/08/08 06:14:59;;;;;;;4.37;1.90;;;;;;;17.22;100.00;102553.69;5113598;27;20462;-59
2022/08/08 06:17:26;;;;;;;6.95;2.50;;;;;;;17.26;100.00;102568.31;5112938;27;20693;-60
2022/08/08 06:20:12;;;;;;;3.30;1.75;;;;;;;17.32;100.00;102564.25;5099924;27;20504;-58
2022/08/08 06:22:44;;;;;;;3.17;1.80;;;;;;;17.37;100.00;102557.50;5106283;28;20096;-60
2022/08/08 06:25:14;;;;;;;4.38;2.08;;;;;;;17.38;100.00;102556.50;5107859;28;20450;-59
2022/08/08 06:27:55;;;;;;;2.45;1.52;;;;;;;17.47;100.00;102554.78;5095704;28;20060;-59
2022/08/08 06:30:23;;;;;;;3.92;1.52;;;;;;;17.49;100.00;102555.47;5103534;28;20071;-60
2022/08/08 06:32:57;;;;;;;5.78;1.70;;;;;;;17.56;100.00;102561.88;5101285;28;20495;-61
2022/08/08 06:35:29;;;;;;;3.85;1.48;;;;;;;17.61;100.00;102561.41;5108064;28;20738;-61
2022/08/08 06:38:20;;;;;;;5.47;1.73;;;;;;;17.67;100.00;102566.09;5100722;28;20047;-60
2022/08/08 06:41:01;;;;;;;3.38;1.85;;;;;;;17.70;100.00;102559.66;5106606;28;20071;-60
2022/08/08 06:43:32;;;;;;;5.88;2.10;;;;;;;17.77;100.00;102566.03;5099493;28;20040;-62
2022/08/08 06:46:02;;;;;;;5.32;1.60;;;;;;;17.78;100.00;102571.19;5086041;27;20051;-60
2022/08/08 06:48:29;;;;;;;;;;;;;;;17.83;100.00;102570.72;5106946;27;20103;-61
2022/08/08 06:50:57;;;;;;;4.90;2.22;;;;;;;17.87;100.00;102576.59;5115910;27;20328;-61
2022/08/08 06:53:25;;;;;;;3.23;1.80;;;;;;;17.90;100.00;102578.97;5115890;27;20044;-61
2022/08/08 06:56:07;;;;;;;8.95;1.88;;;;;;;17.95;100.00;102574.88;5098949;27;20345;-61
2022/08/08 06:58:34;;;;;;;;;;;;;;;18.05;100.00;102579.25;5104881;27;20051;-59
2022/08/08 07:01:06;;;;;;;4.13;1.45;;;;;;;18.10;100.00;102580.47;5091650;28;20125;-61
2022/08/08 07:03:55;;;;;;;8.68;1.70;;;;;;;18.14;100.00;102576.50;5108550;27;20048;-60
2022/08/08 07:06:49;;;;;;;6.93;1.50;;;;;;;18.20;100.00;102577.72;5105666;27;20055;-60
2022/08/08 07:09:20;;;;;;;4.68;1.70;;;;;;;18.28;100.00;102579.59;5113708;27;20479;-60
2022/08/08 07:11:49;;;;;;;5.72;1.70;;;;;;;18.34;100.00;102577.16;5105421;27;20047;-59
2022/08/08 07:14:36;;;;;;;3.55;1.70;;;;;;;18.39;100.00;102574.06;5102559;27;20107;-60
2022/08/08 07:17:08;;;;;;;3.17;1.65;;;;;;;18.45;100.00;102585.88;5083928;28;20090;-60
2022/08/08 07:19:49;;;;;;;4.65;1.52;;;;;;;18.51;100.00;102590.56;5101507;27;20052;-60
2022/08/08 07:22:22;;;;;;;4.72;1.92;;;;;;;18.57;100.00;102589.94;5104177;28;20534;-58
2022/08/08 07:24:53;;;;;;;5.70;1.67;;;;;;;18.63;100.00;102586.66;5096346;27;20063;-60
2022/08/08 07:27:23;;;;;;;5.70;2.10;;;;;;;18.66;100.00;102588.16;5118083;27;20058;-59
2022/08/08 07:30:10;;;;;;;;;;;;;;;18.75;100.00;102593.38;5105921;27;20664;-61
2022/08/08 07:32:46;;;;;;;4.50;1.85;;;;;;;18.81;100.00;102596.44;5105752;27;20258;-61
2022/08/08 07:35:14;;;;;;;5.57;1.70;;;;;;;18.85;100.00;102595.13;5107951;27;20096;-60
2022/08/08 07:37:45;;;;;;;5.90;1.92;;;;;;;18.92;100.00;102591.66;5112321;27;20124;-60
2022/08/08 07:40:31;;;;;;;3.63;1.80;;;;;;;18.95;100.00;102601.16;5084162;27;20128;-60
2022/08/08 07:43:03;;;;;;;3.50;1.80;;;;;;;19.01;100.00;102603.16;5099273;27;20362;-60
2022/08/08 07:45:35;;;;;;;4.13;1.70;;;;;;;19.04;100.00;102592.22;5114253;27;20143;-60
2022/08/08 07:48:22;;;;;;;5.60;1.75;;;;;;;19.07;100.00;102594.56;5105823;27;20423;-60
2022/08/08 07:50:51;;;;;;;3.28;1.50;;;;;;;19.14;100.00;102592.94;5103848;28;20075;-60
2022/08/08 07:53:28;;;;;;;2.40;1.40;;;;;;;19.20;98.89;102601.28;5104131;27;20137;-61
2022/08/08 07:56:16;;;;;;;2.63;1.48;;;;;;;19.29;98.44;102598.47;5107756;27;20051;-60
2022/08/08 07:59:09;;;;;;;4.50;1.63;;;;;;;19.34;98.11;102596.16;5095327;27;20052;-59
2022/08/08 08:01:41;;;;;;;4.28;1.60;;;;;;;19.33;97.19;102594.50;5107170;27;20058;-61
2022/08/08 08:04:41;;;;;;;4.60;1.48;;;;;;;19.39;96.56;102602.84;5105567;27;20051;-59
2022/08/08 08:07:09;;;;;;;6.10;1.95;;;;;;;19.46;97.88;102598.53;5113357;27;20051;-61
2022/08/08 08:09:38;;;;;;;4.00;1.70;;;;;;;19.51;98.06;102597.03;5100102;27;20135;-61
2022/08/08 08:12:08;;;;;;;5.22;1.48;;;;;;;19.57;96.80;102600.88;5123848;27;20165;-61
2022/08/08 08:15:05;;;;;;;3.05;1.50;;;;;;;19.60;96.77;102603.25;5112619;27;20043;-61
2022/08/08 08:17:40;;;;;;;3.00;1.67;;;;;;;19.64;96.81;102604.56;5102787;27;20092;-61
2022/08/08 08:20:17;;;;;;;4.20;1.20;;;;;;;19.80;95.50;102605.59;5113345;27;20051;-61
2022/08/08 08:22:45;;;;;;;6.22;1.90;;;;;;;19.95;93.53;102607.50;5104710;27;20625;-61
2022/08/08 08:25:13;;;;;;;3.22;1.45;;;;;;;20.19;94.91;102610.31;5099296;28;20056;-59
2022/08/08 08:27:58;;;;;;;5.85;1.98;;;;;;;20.54;91.44;102595.78;5099629;27;20383;-60
2022/08/08 08:30:28;;;;;;;2.42;1.25;;;;;;;20.93;91.44;102608.38;5121007;27;20047;-59
2022/08/08 08:32:54;;;;;;;5.03;1.33;;;;;;;21.31;86.29;102600.56;5081447;28;20047;-60
2022/08/08 08:35:24;;;;;;;2.03;1.10;;;;;;;21.68;81.44;102607.91;5103621;28;20055;-59
2022/08/08 08:38:11;;;;;;;2.53;1.10;;;;;;;22.05;78.99;102602.78;5101460;27;20050;-59
2022/08/08 08:40:43;;;;;;;2.22;1.38;;;;;;;22.43;78.73;102600.16;5106724;27;20062;-59
2022/08/08 08:43:17;;;;;;;2.83;1.33;;;;;;;22.73;76.28;102600.16;5109827;27;20070;-60
2022/08/08 08:45:46;;;;;;;1.70;1.17;;;;;;;23.04;74.75;102605.34;5108892;27;20086;-60
2022/08/08 08:48:16;;;;;;;4.00;1.40;;;;;;;23.28;72.60;102609.56;5115486;27;20047;-60
2022/08/08 08:50:48;;;;;;;2.90;1.13;;;;;;;23.59;71.46;102611.97;5093997;27;20100;-59
2022/08/08 08:53:18;;;;;;;3.97;1.17;;;;;;;23.76;68.42;102603.72;5114536;27;20452;-60
2022/08/08 08:56:06;;;;;;;3.30;1.10;;;;;;;24.11;69.14;102611.88;5108542;27;20100;-60
2022/08/08 08:58:38;;;;;;;2.47;1.20;;;;;;;24.32;66.72;102608.34;5114502;27;20290;-59
2022/08/08 09:01:05;;;;;;;3.83;1.05;;;;;;;24.58;66.08;102611.25;5122566;27;20059;-60
2022/08/08 09:03:40;;;;;;;6.15;1.20;;;;;;;24.77;63.69;102603.50;5097483;27;20055;-60
2022/08/08 09:06:27;;;;;;;2.67;1.17;;;;;;;24.62;63.36;102608.97;5104372;27;20566;-60
2022/08/08 09:09:15;;;;;;;3.72;1.10;;;;;;;24.60;64.12;102608.34;5104278;27;20483;-61
2022/08/08 09:12:01;;;;;;;1.92;0.90;;;;;;;24.90;62.97;102613.50;5108653;27;20047;-60
2022/08/08 09:14:34;;;;;;;2.90;0.90;;;;;;;25.15;62.31;102611.09;5102437;27;20152;-60
2022/08/08 09:17:01;;;;;;;3.00;0.93;;;;;;;25.17;61.71;102609.03;5114081;27;20105;-59
2022/08/08 09:19:37;;;;;;;2.67;0.90;;;;;;;24.88;61.81;102607.50;5108061;27;20137;-60
2022/08/08 09:22:24;;;;;;;4.63;1.02;;;;;;;25.07;63.03;102612.13;5117660;27;20052;-59
2022/08/08 09:24:54;;;;;;;2.20;0.90;;;;;;;25.44;62.01;102618.06;5104415;27;20044;-59
2022/08/08 09:27:21;;;;;;;2.65;1.20;;;;;;;25.71;58.65;102610.88;5103495;27;20143;-61
2022/08/08 09:30:13;;;;;;;0.97;0.80;;;;;;;25.83;59.29;102609.25;5109099;27;20050;-60
2022/08/08 09:32:50;;;;;;;3.88;1.05;;;;;;;25.75;59.31;102612.13;5093925;27;20648;-60
2022/08/08 09:35:38;;;;;;;3.15;0.93;;;;;;;26.20;58.95;102603.50;5102766;27;20051;-59
2022/08/08 09:38:28;;;;;;;2.83;0.95;;;;;;;26.63;57.28;102611.13;5096680;27;20047;-59
2022/08/08 09:41:03;;;;;;;2.13;0.90;;;;;;;26.93;60.11;102605.22;5102469;27;20051;-59
2022/08/08 09:43:33;;;;;;;3.80;0.90;;;;;;;27.03;57.23;102606.44;5092857;28;20054;-59
2022/08/08 09:46:20;;;;;;;3.63;1.00;;;;;;;26.79;55.67;102607.13;5086778;27;20051;-59
2022/08/08 09:48:59;;;;;;;1.42;0.88;;;;;;;26.63;56.56;102611.94;5099714;27;20051;-60
2022/08/08 09:51:54;;;;;;;2.60;1.00;;;;;;;26.35;57.11;102603.28;5109033;27;20058;-60
2022/08/08 09:54:43;;;;;;;5.05;1.27;;;;;;;26.57;57.47;102595.78;5095593;27;20757;-60
2022/08/08 09:57:16;;;;;;;1.70;0.90;;;;;;;26.83;56.53;102597.59;5115571;27;20097;-60
2022/08/08 09:59:49;;;;;;;2.47;0.90;;;;;;;26.96;55.56;102594.88;5094846;27;20055;-60
2022/08/08 10:02:45;;;;;;;2.17;0.70;;;;;;;26.85;55.26;102602.78;5107542;27;20050;-59
2022/08/08 10:05:19;;;;;;;2.35;0.80;;;;;;;26.74;55.94;102601.59;5102201;27;20047;-59
2022/08/08 10:07:50;;;;;;;1.50;0.80;;;;;;;26.53;55.29;102600.75;5108838;27;20100;-60
2022/08/08 10:10:27;;;;;;;2.58;1.08;;;;;;;26.30;55.68;102600.38;5098095;27;20452;-60
2022/08/08 10:12:59;;;;;;;3.00;0.95;;;;;;;26.01;55.43;102606.00;5087818;28;20047;-60
2022/08/08 10:15:45;;;;;;;3.92;1.10;;;;;;;25.85;56.25;102609.88;5091357;27;20051;-59
2022/08/08 10:18:35;;;;;;;2.67;0.80;;;;;;;25.95;57.89;102614.03;5110046;27;20526;-60
2022/08/08 10:21:03;;;;;;;2.08;0.98;;;;;;;25.85;57.57;102612.56;5110899;27;20047;-60
2022/08/08 10:23:50;;;;;;;2.70;0.88;;;;;;;25.85;58.50;102611.72;5089692;28;20055;-59
2022/08/08 10:26:37;;;;;;;2.50;1.10;;;;;;;25.85;58.63;102607.19;5102598;28;20088;-60
2022/08/08 10:29:38;;;;;;;1.88;0.90;;;;;;;25.87;58.07;102614.22;5092224;28;20633;-62
2022/08/08 10:35:30;;;;;;;3.72;1.13;;;;;;;25.65;58.20;102599.09;5087078;28;20047;-61
2022/08/08 10:38:18;;;;;;;2.95;1.00;;;;;;;25.79;58.15;102602.63;5100513;28;20051;-59
2022/08/08 10:40:50;;;;;;;2.92;1.00;;;;;;;26.21;57.49;102607.84;5104704;28;20047;-60
2022/08/08 10:43:19;;;;;;;2.83;1.02;;;;;;;26.33;56.16;102602.66;5104923;28;20043;-60
2022/08/08 10:45:50;;;;;;;2.72;1.00;;;;;;;26.20;54.62;102608.88;5102806;28;20730;-60
2022/08/08 10:48:34;;;;;;;1.70;0.93;;;;;;;26.24;55.63;102600.16;5099954;28;20051;-60
2022/08/08 10:51:21;;;;;;;;;;;;;;;26.33;55.64;102597.28;5091450;27;20059;-60
2022/08/08 10:53:51;;;;;;;3.53;1.10;;;;;;;26.19;54.70;102601.84;5095586;28;20616;-61
2022/08/08 10:56:24;;;;;;;4.18;1.08;;;;;;;26.05;56.61;102598.34;5112226;27;20450;-60
2022/08/08 10:59:06;;;;;;;1.90;0.95;;;;;;;26.08;56.37;102595.22;5103326;27;20051;-60
2022/08/08 11:01:36;;;;;;;3.17;1.00;;;;;;;26.03;57.01;102601.22;5106831;27;20120;-60
2022/08/08 11:04:06;;;;;;;2.40;1.00;;;;;;;26.08;57.65;102597.91;5093859;27;20130;-60
2022/08/08 11:06:37;;;;;;;1.73;0.85;;;;;;;26.02;56.96;102598.75;5106244;28;20077;-59
2022/08/08 11:09:13;;;;;;;3.20;1.10;;;;;;;25.93;55.99;102597.28;5095669;28;20070;-60
2022/08/08 11:11:45;;;;;;;2.50;0.98;;;;;;;25.88;56.43;102597.06;5119094;28;20344;-59
2022/08/08 11:14:32;;;;;;;1.85;0.98;;;;;;;26.14;56.96;102588.19;5103570;28;20484;-60
2022/08/08 11:17:01;;;;;;;2.63;0.85;;;;;;;26.42;58.01;102591.47;5111202;28;20054;-60
2022/08/08 11:19:32;;;;;;;2.85;1.00;;;;;;;26.65;55.73;102600.16;5100740;28;20047;-59
2022/08/08 11:22:00;;;;;;;2.45;0.95;;;;;;;26.71;54.38;102592.03;5099329;27;20816;-59
2022/08/08 11:24:33;;;;;;;2.55;1.05;;;;;;;26.76;54.80;102575.28;5103673;28;20048;-60
2022/08/08 11:27:02;;;;;;;2.08;0.98;;;;;;;26.75;54.44;102579.00;5093145;27;20057;-59
2022/08/08 11:29:47;;;;;;;3.67;1.20;;;;;;;26.78;56.16;102587.47;5104133;28;20083;-60
2022/08/08 11:32:42;;;;;;;3.40;1.10;;;;;;;26.73;55.70;102584.59;5102337;27;20061;-60
2022/08/08 11:35:13;;;;;;;3.08;1.05;;;;;;;26.66;55.56;102583.81;5106986;27;20393;-59
2022/08/08 11:38:01;;;;;;;2.38;0.90;;;;;;;26.91;54.57;102575.81;5100706;27;20047;-58
2022/08/08 11:40:48;;;;;;;3.60;0.98;;;;;;;26.92;55.63;102572.09;5104944;27;20146;-60
2022/08/08 11:43:19;;;;;;;2.63;1.10;;;;;;;26.93;55.18;102573.78;5088735;27;20052;-60
2022/08/08 11:45:50;;;;;;;3.55;1.10;;;;;;;27.16;55.15;102583.19;5116098;27;20079;-59
2022/08/08 11:48:38;;;;;;;3.58;0.98;;;;;;;27.28;54.77;102577.97;5101407;27;20534;-60
2022/08/08 11:51:05;;;;;;;2.05;0.90;;;;;;;27.37;53.67;102571.28;5094083;28;20052;-61
2022/08/08 11:53:52;;;;;;;1.23;0.90;;;;;;;27.80;53.95;102566.00;5105558;27;20043;-60
2022/08/08 11:56:32;;;;;;;1.65;0.80;;;;;;;28.26;52.23;102563.94;5107716;27;20051;-61
2022/08/08 11:59:10;;;;;;;2.20;1.00;;;;;;;28.20;51.53;102557.56;5104117;27;20060;-61
2022/08/08 12:01:37;;;;;;;1.43;0.90;;;;;;;28.11;52.12;102563.47;5091854;27;20609;-60
2022/08/08 12:04:04;;;;;;;1.63;0.82;;;;;;;28.07;51.62;102567.66;5107226;27;20535;-60
2022/08/08 12:06:32;;;;;;;2.00;0.90;;;;;;;27.94;52.58;102568.63;5105602;27;20048;-59
2022/08/08 12:09:09;;;;;;;3.23;1.17;;;;;;;27.90;51.79;102564.72;5120789;27;20051;-60
2022/08/08 12:11:44;;;;;;;2.00;0.90;;;;;;;27.59;52.10;102558.28;5105302;27;20279;-60
2022/08/08 12:14:24;;;;;;;3.10;0.95;;;;;;;27.60;52.79;102555.38;5105202;27;20100;-59
2022/08/08 12:16:55;;;;;;;3.50;1.10;;;;;;;27.56;54.29;102566.78;5102863;27;20271;-60
2022/08/08 12:19:24;;;;;;;2.60;0.80;;;;;;;27.74;52.93;102561.47;5103443;27;20077;-61
2022/08/08 12:22:11;;;;;;;3.22;0.90;;;;;;;28.18;52.85;102556.16;5109408;27;20058;-59
2022/08/08 12:24:48;;;;;;;3.65;1.15;;;;;;;28.53;52.00;102556.41;5098721;27;20047;-59
2022/08/08 12:27:22;;;;;;;1.67;0.80;;;;;;;28.83;51.13;102560.22;5103165;27;20126;-60
2022/08/08 12:30:00;;;;;;;3.83;0.95;;;;;;;29.11;49.37;102554.25;5101199;27;20509;-59
2022/08/08 12:32:40;;;;;;;2.97;1.02;;;;;;;29.33;49.56;102546.50;5097998;28;20142;-60